Bradley, Illinois
Current Conditions -  °F | °C
As of 4:55 AM on Friday 31 Oct 2014 (Local Time) from KIKK Reporting Station
Overcast Overcast  
Wind Chill: 36°   Ceiling: 2600
Heat Index: 44°   Visibility: 10mi
Dew Point: 37°   Wind: 16mph
Humidity: 77%   Direction: 330°NNW
Pressure: 30.04"   Gusts: 23mph
Location:  41.14°N, 87.86°W
Report Text: KIKK 310955Z AUTO 33014G20KT 10SM SCT019 BKN026 OVC042 06/03 A3004 RMK AO2 T00640027
Loading
Personal Weather Stations






























Interactive Weather Map
Tropical Storm Tracking
New forecast layout! Learn more

10-Day Weather Forecast

Advertisements
Track Severe Weather on mobile